createdAt,value
2023-02-03T00:00:09.179Z,98665.28
2023-02-03T00:01:12.142Z,98658.06
2023-02-03T00:02:15.035Z,98659.03
2023-02-03T00:03:18.003Z,98668.41
2023-02-03T00:04:21.134Z,98663.62
2023-02-03T00:05:24.700Z,98664.00
2023-02-03T00:06:27.977Z,98669.19
2023-02-03T00:07:31.339Z,98674.06
2023-02-03T00:08:34.668Z,98669.28
2023-02-03T00:09:37.731Z,98669.16
2023-02-03T00:10:41.167Z,98675.44
2023-02-03T00:11:44.189Z,98670.09
2023-02-03T00:12:52.906Z,98669.34
2023-02-03T00:13:55.864Z,98671.41
2023-02-03T00:14:58.711Z,98675.09
2023-02-03T00:16:06.847Z,98676.13
2023-02-03T00:17:09.718Z,98677.16
2023-02-03T00:18:13.008Z,98681.94
2023-02-03T00:19:17.492Z,98679.72
2023-02-03T00:20:20.826Z,98677.84
2023-02-03T00:21:23.822Z,98678.94
2023-02-03T00:22:26.801Z,98668.56
2023-02-03T00:23:32.427Z,98685.47
2023-02-03T00:24:35.455Z,98673.19
2023-02-03T00:25:39.567Z,98686.19
2023-02-03T00:26:43.802Z,98688.47
2023-02-03T00:27:47.444Z,98679.72
2023-02-03T00:28:50.502Z,98689.44
2023-02-03T00:29:53.397Z,98696.81
2023-02-03T00:30:56.232Z,98690.37
2023-02-03T00:31:59.339Z,98704.34
2023-02-03T00:33:02.818Z,98709.69
2023-02-03T00:34:05.627Z,98711.59
2023-02-03T00:35:08.783Z,98718.56
2023-02-03T00:36:12.499Z,98716.16
2023-02-03T00:37:16.101Z,98719.94
2023-02-03T00:38:19.090Z,98714.38
2023-02-03T00:39:22.896Z,98713.22
2023-02-03T00:40:27.464Z,98726.88
2023-02-03T00:41:34.285Z,98712.63
2023-02-03T00:42:40.707Z,98713.84
2023-02-03T00:43:44.300Z,98715.44
2023-02-03T00:44:47.221Z,98721.78
2023-02-03T00:45:50.309Z,98734.03
2023-02-03T00:46:53.701Z,98732.53
2023-02-03T00:47:56.679Z,98717.59
2023-02-03T00:48:59.646Z,98712.06
2023-02-03T00:50:02.498Z,98720.53
2023-02-03T00:51:05.750Z,98733.84
2023-02-03T00:52:08.563Z,98724.31
2023-02-03T00:53:11.366Z,98731.41
2023-02-03T00:54:14.501Z,98716.38
2023-02-03T00:55:20.571Z,98724.38
2023-02-03T00:56:23.769Z,98716.00
2023-02-03T00:57:27.022Z,98730.09
2023-02-03T00:58:30.237Z,98731.88
2023-02-03T00:59:33.218Z,98717.38
2023-02-03T01:00:36.063Z,98729.56
2023-02-03T01:01:42.543Z,98734.00
2023-02-03T01:02:46.002Z,98731.69
2023-02-03T01:03:49.019Z,98731.31
2023-02-03T01:04:53.142Z,98736.66
2023-02-03T01:05:56.018Z,98740.03
2023-02-03T01:07:00.056Z,98740.12
2023-02-03T01:08:05.560Z,98748.69
2023-02-03T01:09:08.485Z,98745.16
2023-02-03T01:10:11.627Z,98747.12
2023-02-03T01:11:18.060Z,98737.41
2023-02-03T01:12:21.005Z,98740.97
2023-02-03T01:13:27.433Z,98749.28
2023-02-03T01:14:30.658Z,98743.56
2023-02-03T01:15:33.481Z,98754.88
2023-02-03T01:16:38.480Z,98748.41
2023-02-03T01:17:41.484Z,98750.37
2023-02-03T01:18:44.713Z,98749.19
2023-02-03T01:19:47.666Z,98752.34
2023-02-03T01:20:50.618Z,98742.66
2023-02-03T01:21:53.844Z,98757.38
2023-02-03T01:22:56.652Z,98759.97
2023-02-03T01:24:09.856Z,98750.06
2023-02-03T01:25:12.881Z,98744.13
2023-02-03T01:26:18.193Z,98755.22
2023-02-03T01:27:21.809Z,98750.06
2023-02-03T01:28:25.556Z,98759.41
2023-02-03T01:29:28.714Z,98749.66
2023-02-03T01:30:32.771Z,98743.13
2023-02-03T01:31:42.578Z,98745.91
2023-02-03T01:32:45.636Z,98750.84
2023-02-03T01:33:48.921Z,98757.81
2023-02-03T01:34:51.837Z,98746.50
2023-02-03T01:35:54.831Z,98754.16
2023-02-03T01:36:57.979Z,98753.84
2023-02-03T01:38:00.865Z,98748.34
2023-02-03T01:39:05.250Z,98749.97
2023-02-03T01:40:08.859Z,98753.09
2023-02-03T01:41:15.640Z,98742.16
2023-02-03T01:42:18.700Z,98753.84
2023-02-03T01:43:39.623Z,98760.78
2023-02-03T01:44:51.582Z,98753.63
2023-02-03T01:45:54.601Z,98753.31
2023-02-03T01:46:57.915Z,98756.66
2023-02-03T01:48:01.042Z,98759.47
2023-02-03T01:49:17.057Z,98760.84
2023-02-03T01:50:36.592Z,98766.41
2023-02-03T01:51:43.458Z,98762.31
2023-02-03T01:52:54.065Z,98766.22
2023-02-03T01:53:57.680Z,98765.28
2023-02-03T01:55:04.751Z,98766.25
2023-02-03T01:56:08.472Z,98757.72
2023-02-03T01:57:17.695Z,98765.28
2023-02-03T01:58:29.277Z,98762.50
2023-02-03T01:59:34.865Z,98773.13
2023-02-03T02:00:38.172Z,98764.31
2023-02-03T02:01:41.179Z,98769.22
2023-02-03T02:02:47.700Z,98765.69
2023-02-03T02:03:55.702Z,98767.69
2023-02-03T02:05:30.417Z,98771.66
2023-02-03T02:06:33.705Z,98776.81
2023-02-03T02:07:38.918Z,98770.28
2023-02-03T02:08:46.591Z,98772.06
2023-02-03T02:09:50.088Z,98778.28
2023-02-03T02:10:53.924Z,98768.75
2023-02-03T02:11:56.851Z,98777.44
2023-02-03T02:13:03.329Z,98769.91
2023-02-03T02:14:07.462Z,98774.09
2023-02-03T02:15:14.406Z,98778.28
2023-02-03T02:16:37.663Z,98780.44
2023-02-03T02:18:11.494Z,98778.47
2023-02-03T02:19:57.597Z,98775.09
2023-02-03T02:21:15.696Z,98774.72
2023-02-03T02:22:29.081Z,98776.66
2023-02-03T02:23:44.590Z,98777.69
2023-02-03T02:25:08.537Z,98783.38
2023-02-03T02:26:16.943Z,98782.00
2023-02-03T02:27:50.081Z,98779.19
2023-02-03T02:29:16.737Z,98782.94
2023-02-03T02:30:41.702Z,98775.44
2023-02-03T02:32:00.669Z,98778.97
2023-02-03T02:33:28.343Z,98769.31
2023-02-03T02:34:43.075Z,98778.81
2023-02-03T02:36:21.116Z,98780.41
2023-02-03T02:38:02.860Z,98783.16
2023-02-03T02:39:35.579Z,98771.50
2023-02-03T02:40:54.432Z,98780.06
2023-02-03T02:42:02.579Z,98781.25
2023-02-03T02:43:12.785Z,98783.75
2023-02-03T02:44:35.701Z,98782.78
2023-02-03T02:45:41.319Z,98784.38
2023-02-03T02:46:51.443Z,98786.59
2023-02-03T02:48:01.513Z,98797.50
2023-02-03T02:49:17.112Z,98793.72
2023-02-03T02:50:31.999Z,98783.41
2023-02-03T02:51:37.722Z,98797.91
2023-02-03T02:52:43.830Z,98793.72
2023-02-03T02:53:53.559Z,98795.31
2023-02-03T02:55:03.744Z,98799.88
2023-02-03T02:56:11.628Z,98794.34
2023-02-03T02:57:18.532Z,98799.22
2023-02-03T02:58:23.561Z,98808.38
2023-02-03T02:59:26.657Z,98798.28
2023-02-03T03:00:31.625Z,98797.28
2023-02-03T03:01:34.658Z,98809.38
2023-02-03T03:02:37.735Z,98797.69
2023-02-03T03:03:43.138Z,98800.50
2023-02-03T03:04:50.110Z,98804.03
2023-02-03T03:06:03.795Z,98809.97
2023-02-03T03:07:13.207Z,98808.22
2023-02-03T03:08:19.776Z,98806.81
2023-02-03T03:09:27.570Z,98805.81
2023-02-03T03:10:33.194Z,98802.41
2023-02-03T03:11:42.135Z,98802.03
2023-02-03T03:12:54.168Z,98806.19
2023-02-03T03:13:57.329Z,98803.25
2023-02-03T03:15:04.870Z,98804.81
2023-02-03T03:16:11.757Z,98792.16
2023-02-03T03:17:25.200Z,98794.94
2023-02-03T03:18:35.346Z,98799.53
2023-02-03T03:19:43.281Z,98795.31
2023-02-03T03:20:50.264Z,98799.03
2023-02-03T03:21:57.803Z,98802.63
2023-02-03T03:23:07.925Z,98788.19
2023-02-03T03:24:15.853Z,98791.13
2023-02-03T03:25:28.065Z,98793.34
2023-02-03T03:26:55.721Z,98797.88
2023-02-03T03:28:08.965Z,98789.97
2023-02-03T03:29:19.986Z,98792.56
2023-02-03T03:30:27.534Z,98792.97
2023-02-03T03:31:31.304Z,98794.72
2023-02-03T03:32:34.749Z,98792.38
2023-02-03T03:33:37.943Z,98790.78
2023-02-03T03:34:42.546Z,98782.88
2023-02-03T03:36:20.178Z,98782.25
2023-02-03T03:37:41.460Z,98787.81
2023-02-03T03:38:49.654Z,98785.88
2023-02-03T03:39:57.749Z,98785.50
2023-02-03T03:41:14.140Z,98783.47
2023-02-03T03:43:15.069Z,98784.25
2023-02-03T03:44:22.341Z,98782.69
2023-02-03T03:45:35.299Z,98786.91
2023-02-03T03:46:46.372Z,98786.09
2023-02-03T03:47:52.535Z,98783.28
2023-02-03T03:49:03.117Z,98775.56
2023-02-03T03:50:11.869Z,98775.16
2023-02-03T03:51:27.145Z,98778.53
2023-02-03T03:52:35.347Z,98780.50
2023-02-03T03:53:41.954Z,98778.53
2023-02-03T03:54:47.513Z,98773.75
2023-02-03T03:55:53.091Z,98770.62
2023-02-03T03:57:02.897Z,98769.84
2023-02-03T03:58:13.221Z,98769.81
2023-02-03T03:59:19.538Z,98764.66
2023-02-03T04:00:26.483Z,98770.97
2023-02-03T04:01:31.191Z,98780.50
2023-02-03T04:02:36.855Z,98779.31
2023-02-03T04:03:44.897Z,98777.12
2023-02-03T04:04:48.861Z,98782.06
2023-02-03T04:05:51.822Z,98786.41
2023-02-03T04:06:55.193Z,98778.69
2023-02-03T04:07:58.057Z,98775.31
2023-02-03T04:09:02.469Z,98772.97
2023-02-03T04:10:13.326Z,98781.09
2023-02-03T04:11:36.362Z,98772.41
2023-02-03T04:12:39.525Z,98775.56
2023-02-03T04:13:42.683Z,98771.56
2023-02-03T04:14:45.775Z,98776.28
2023-02-03T04:15:49.020Z,98778.84
2023-02-03T04:16:52.347Z,98769.16
2023-02-03T04:17:57.459Z,98770.56
2023-02-03T04:19:00.649Z,98763.25
2023-02-03T04:20:06.561Z,98767.22
2023-02-03T04:21:13.439Z,98763.50
2023-02-03T04:22:16.286Z,98769.44
2023-02-03T04:23:19.269Z,98759.72
2023-02-03T04:24:22.306Z,98762.81
2023-02-03T04:25:25.908Z,98761.44
2023-02-03T04:26:28.947Z,98765.81
2023-02-03T04:27:31.839Z,98754.97
2023-02-03T04:28:34.706Z,98764.84
2023-02-03T04:29:37.982Z,98765.06
2023-02-03T04:30:40.874Z,98764.06
2023-02-03T04:31:43.862Z,98762.66
2023-02-03T04:32:47.562Z,98770.16
2023-02-03T04:33:50.589Z,98766.41
2023-02-03T04:34:53.580Z,98771.19
2023-02-03T04:35:56.380Z,98772.75
2023-02-03T04:36:59.259Z,98770.22
2023-02-03T04:38:02.353Z,98774.56
2023-02-03T04:39:05.308Z,98770.44
2023-02-03T04:40:10.020Z,98763.09
2023-02-03T04:41:12.861Z,98769.62
2023-02-03T04:42:19.514Z,98759.88
2023-02-03T04:43:22.576Z,98766.22
2023-02-03T04:44:25.338Z,98761.47
2023-02-03T04:45:28.332Z,98768.38
2023-02-03T04:46:31.352Z,98773.13
2023-02-03T04:47:34.686Z,98780.28
2023-02-03T04:48:37.747Z,98786.25
2023-02-03T04:49:40.872Z,98783.03
2023-02-03T04:50:43.783Z,98786.81
2023-02-03T04:51:49.507Z,98790.53
2023-02-03T04:52:52.351Z,98787.78
2023-02-03T04:53:55.386Z,98788.97
2023-02-03T04:54:58.406Z,98776.28
2023-02-03T04:56:01.783Z,98762.44
2023-02-03T04:57:05.219Z,98768.94
2023-02-03T04:58:09.425Z,98770.31
2023-02-03T04:59:12.384Z,98773.31
2023-02-03T05:00:16.028Z,98775.69
2023-02-03T05:01:19.203Z,98771.72
2023-02-03T05:02:22.074Z,98772.53
2023-02-03T05:03:26.354Z,98782.78
2023-02-03T05:04:29.461Z,98773.87
2023-02-03T05:05:32.304Z,98772.06
2023-02-03T05:06:35.700Z,98774.84
2023-02-03T05:07:38.702Z,98767.16
2023-02-03T05:08:41.620Z,98763.16
2023-02-03T05:09:44.466Z,98762.78
2023-02-03T05:10:47.308Z,98766.75
2023-02-03T05:11:50.264Z,98765.13
2023-02-03T05:12:53.301Z,98774.09
2023-02-03T05:13:56.241Z,98776.84
2023-02-03T05:14:59.426Z,98779.06
2023-02-03T05:16:02.431Z,98780.22
2023-02-03T05:17:05.344Z,98777.06
2023-02-03T05:18:08.181Z,98769.13
2023-02-03T05:19:11.023Z,98774.09
2023-02-03T05:20:14.098Z,98770.12
2023-02-03T05:21:17.008Z,98779.81
2023-02-03T05:22:19.743Z,98787.72
2023-02-03T05:23:22.663Z,98781.56
2023-02-03T05:24:25.473Z,98785.34
2023-02-03T05:25:28.375Z,98784.13
2023-02-03T05:26:31.317Z,98788.53
2023-02-03T05:27:34.301Z,98797.81
2023-02-03T05:28:37.348Z,98796.44
2023-02-03T05:29:40.322Z,98793.88
2023-02-03T05:30:43.173Z,98799.41
2023-02-03T05:31:46.402Z,98800.25
2023-02-03T05:32:50.264Z,98803.59
2023-02-03T05:33:53.325Z,98794.69
2023-02-03T05:34:56.242Z,98797.81
2023-02-03T05:35:59.081Z,98788.13
2023-02-03T05:37:03.638Z,98779.97
2023-02-03T05:38:06.607Z,98795.66
2023-02-03T05:39:09.594Z,98799.38
2023-02-03T05:40:31.791Z,98805.31
2023-02-03T05:41:52.571Z,98805.75
2023-02-03T05:42:55.538Z,98802.97
2023-02-03T05:43:58.445Z,98797.81
2023-02-03T05:45:01.241Z,98806.31
2023-02-03T05:46:06.528Z,98796.63
2023-02-03T05:47:09.589Z,98806.59
2023-02-03T05:48:12.895Z,98797.66
2023-02-03T05:49:16.221Z,98802.41
2023-02-03T05:50:20.254Z,98800.25
2023-02-03T05:51:23.176Z,98796.47
2023-02-03T05:52:25.946Z,98797.03
2023-02-03T05:53:28.801Z,98792.50
2023-02-03T05:54:31.899Z,98796.63
2023-02-03T05:55:35.131Z,98802.19
2023-02-03T05:56:38.339Z,98806.91
2023-02-03T05:57:42.293Z,98800.81
2023-02-03T05:58:45.588Z,98807.75
2023-02-03T05:59:49.992Z,98804.37
2023-02-03T06:00:53.213Z,98799.00
2023-02-03T06:01:56.062Z,98798.22
2023-02-03T06:03:02.684Z,98788.72
2023-02-03T06:04:06.440Z,98795.69
2023-02-03T06:05:09.701Z,98798.06
2023-02-03T06:06:12.582Z,98803.16
2023-02-03T06:07:15.567Z,98794.41
2023-02-03T06:09:29.056Z,98798.41
2023-02-03T06:10:32.204Z,98796.44
2023-02-03T06:11:36.541Z,98801.03
2023-02-03T06:12:39.618Z,98795.44
2023-02-03T06:13:42.456Z,98795.97
2023-02-03T06:14:45.484Z,98791.03
2023-02-03T06:15:48.335Z,98795.25
2023-02-03T06:16:51.272Z,98791.88
2023-02-03T06:17:54.369Z,98784.72
2023-02-03T06:18:59.798Z,98783.53
2023-02-03T06:20:08.159Z,98790.50
2023-02-03T06:21:10.945Z,98797.41
2023-02-03T06:22:13.797Z,98800.44
2023-02-03T06:23:17.453Z,98796.28
2023-02-03T06:24:20.469Z,98794.13
2023-02-03T06:25:24.455Z,98798.66
2023-02-03T06:26:27.574Z,98802.59
2023-02-03T06:27:30.745Z,98800.91
2023-02-03T06:28:33.768Z,98800.78
2023-02-03T06:29:36.863Z,98803.19
2023-02-03T06:30:39.757Z,98803.59
2023-02-03T06:31:42.814Z,98806.53
2023-02-03T06:32:45.774Z,98801.41
2023-02-03T06:33:48.618Z,98807.16
2023-02-03T06:34:51.530Z,98801.78
2023-02-03T06:35:54.876Z,98801.59
2023-02-03T06:36:58.005Z,98807.34
2023-02-03T06:38:04.502Z,98807.69
2023-02-03T06:39:07.306Z,98807.28
2023-02-03T06:40:11.497Z,98809.47
2023-02-03T06:41:14.556Z,98817.00
2023-02-03T06:42:17.361Z,98807.28
2023-02-03T06:43:20.166Z,98820.16
2023-02-03T06:44:23.369Z,98818.38
2023-02-03T06:45:26.414Z,98819.16
2023-02-03T06:46:30.991Z,98818.81
2023-02-03T06:47:35.404Z,98811.66
2023-02-03T06:48:38.301Z,98813.41
2023-02-03T06:49:41.099Z,98806.38
2023-02-03T06:50:48.312Z,98808.62
2023-02-03T06:51:53.015Z,98799.72
2023-02-03T06:52:55.857Z,98811.81
2023-02-03T06:53:59.030Z,98811.53
2023-02-03T06:55:05.651Z,98807.34
2023-02-03T06:56:08.635Z,98808.78
2023-02-03T06:57:11.791Z,98803.87
2023-02-03T06:58:15.048Z,98807.00
2023-02-03T06:59:18.197Z,98805.00
2023-02-03T07:00:23.229Z,98811.09
2023-02-03T07:01:26.442Z,98809.91
2023-02-03T07:02:30.054Z,98796.31
2023-02-03T07:03:33.087Z,98798.28
2023-02-03T07:04:36.104Z,98806.31
2023-02-03T07:05:40.971Z,98803.56
2023-02-03T07:06:43.824Z,98800.44
2023-02-03T07:07:46.746Z,98803.03
2023-02-03T07:08:49.688Z,98804.47
2023-02-03T07:09:52.564Z,98798.19
2023-02-03T07:10:55.888Z,98795.19
2023-02-03T07:11:58.758Z,98787.78
2023-02-03T07:13:06.724Z,98794.06
2023-02-03T07:14:09.578Z,98794.59
2023-02-03T07:15:13.407Z,98793.00
2023-02-03T07:16:16.410Z,98791.00
2023-02-03T07:17:19.698Z,98800.59
2023-02-03T07:19:50.083Z,98796.03
2023-02-03T07:20:56.518Z,98794.78
2023-02-03T07:21:59.307Z,98789.09
2023-02-03T07:23:02.632Z,98798.03
2023-02-03T07:24:05.851Z,98794.22
2023-02-03T07:25:10.732Z,98796.69
2023-02-03T07:26:13.652Z,98796.09
2023-02-03T07:27:16.528Z,98797.09
2023-02-03T07:28:19.417Z,98801.53
2023-02-03T07:29:25.652Z,98804.72
2023-02-03T07:30:28.780Z,98807.31
2023-02-03T07:31:32.097Z,98803.47
2023-02-03T07:32:34.943Z,98808.56
2023-02-03T07:33:39.368Z,98797.00
2023-02-03T07:34:42.288Z,98805.09
2023-02-03T07:35:45.164Z,98805.50
2023-02-03T07:36:48.080Z,98809.75
2023-02-03T07:37:51.159Z,98807.06
2023-02-03T07:38:54.294Z,98806.19
2023-02-03T07:39:57.190Z,98809.25
2023-02-03T07:41:00.360Z,98808.25
2023-02-03T07:42:03.252Z,98812.25
2023-02-03T07:43:06.197Z,98809.31
2023-02-03T07:44:09.660Z,98814.97
2023-02-03T07:45:14.635Z,98811.91
2023-02-03T07:46:17.919Z,98814.88
2023-02-03T07:47:20.857Z,98813.22
2023-02-03T07:48:24.119Z,98810.41
2023-02-03T07:49:26.975Z,98815.03
2023-02-03T07:50:30.023Z,98818.91
2023-02-03T07:51:33.086Z,98811.66
2023-02-03T07:52:36.874Z,98815.50
2023-02-03T07:53:39.824Z,98814.59
2023-02-03T07:54:42.763Z,98814.28
2023-02-03T07:55:45.843Z,98813.09
2023-02-03T07:56:49.240Z,98808.53
2023-02-03T07:57:54.343Z,98808.62
2023-02-03T07:58:57.252Z,98811.28
2023-02-03T08:00:00.194Z,98807.38
2023-02-03T08:01:11.090Z,98815.72
2023-02-03T08:02:14.238Z,98811.91
2023-02-03T08:03:17.171Z,98819.81
2023-02-03T08:04:21.176Z,98815.03
2023-02-03T08:05:24.079Z,98815.38
2023-02-03T08:06:26.961Z,98806.50
2023-02-03T08:07:30.094Z,98809.12
2023-02-03T08:08:33.297Z,98812.03
2023-02-03T08:09:36.165Z,98808.31
2023-02-03T08:10:39.370Z,98805.34
2023-02-03T08:11:42.247Z,98809.09
2023-02-03T08:12:46.803Z,98806.59
2023-02-03T08:13:49.863Z,98806.38
2023-02-03T08:14:52.858Z,98808.97
2023-02-03T08:15:55.797Z,98803.87
2023-02-03T08:16:58.614Z,98810.88
2023-02-03T08:18:01.518Z,98812.03
2023-02-03T08:19:04.730Z,98813.91
2023-02-03T08:20:09.443Z,98811.94
2023-02-03T08:21:12.369Z,98810.38
2023-02-03T08:22:18.206Z,98806.38
2023-02-03T08:23:21.105Z,98802.53
2023-02-03T08:24:23.968Z,98805.84
2023-02-03T08:25:27.125Z,98800.88
2023-02-03T08:26:30.324Z,98805.91
2023-02-03T08:27:33.361Z,98810.66
2023-02-03T08:28:36.293Z,98799.56
2023-02-03T08:29:39.781Z,98806.94
2023-02-03T08:30:42.780Z,98799.56
2023-02-03T08:31:45.790Z,98804.56
2023-02-03T08:34:09.515Z,98812.16
2023-02-03T08:35:12.595Z,98813.28
2023-02-03T08:36:15.542Z,98818.81
2023-02-03T08:37:22.811Z,98814.75
2023-02-03T08:38:25.715Z,98821.72
2023-02-03T08:39:28.803Z,98814.41
2023-02-03T08:40:32.264Z,98821.94
2023-02-03T08:41:39.638Z,98816.00
2023-02-03T08:42:42.669Z,98817.44
2023-02-03T08:43:45.988Z,98818.28
2023-02-03T08:44:49.672Z,98826.50
2023-02-03T08:45:52.706Z,98823.56
2023-02-03T08:46:55.813Z,98828.16
2023-02-03T08:47:58.787Z,98825.22
2023-02-03T08:49:03.233Z,98824.22
2023-02-03T08:50:09.117Z,98823.72
2023-02-03T08:51:15.016Z,98827.22
2023-02-03T08:52:19.105Z,98819.47
2023-02-03T08:53:22.018Z,98818.28
2023-02-03T08:54:26.055Z,98825.63
2023-02-03T08:55:29.041Z,98828.03
2023-02-03T08:56:34.299Z,98824.69
2023-02-03T08:57:37.787Z,98818.84
2023-02-03T08:58:40.998Z,98825.75
2023-02-03T08:59:44.999Z,98828.13
2023-02-03T09:00:50.199Z,98832.22
2023-02-03T09:01:53.420Z,98835.03
2023-02-03T09:02:56.470Z,98833.66
2023-02-03T09:04:02.451Z,98833.03
2023-02-03T09:05:05.715Z,98835.56
2023-02-03T09:06:12.011Z,98842.94
2023-02-03T09:07:15.809Z,98839.41
2023-02-03T09:08:18.987Z,98827.34
2023-02-03T09:09:23.144Z,98832.66
2023-02-03T09:10:26.697Z,98830.59
2023-02-03T09:11:29.963Z,98836.53
2023-02-03T09:12:33.056Z,98835.34
2023-02-03T09:13:35.959Z,98834.16
2023-02-03T09:14:39.242Z,98831.16
2023-02-03T09:15:42.116Z,98832.22
2023-02-03T09:16:45.066Z,98838.91
2023-02-03T09:17:51.825Z,98832.91
2023-02-03T09:18:54.842Z,98829.75
2023-02-03T09:19:57.809Z,98838.28
2023-02-03T09:21:05.939Z,98826.94
2023-02-03T09:22:09.022Z,98821.47
2023-02-03T09:23:12.245Z,98829.38
2023-02-03T09:24:16.331Z,98823.03
2023-02-03T09:25:19.263Z,98836.53
2023-02-03T09:26:22.363Z,98825.88
2023-02-03T09:27:25.420Z,98824.22
2023-02-03T09:28:28.733Z,98823.94
2023-02-03T09:29:32.032Z,98813.06
2023-02-03T09:30:35.171Z,98807.25
2023-02-03T09:31:38.096Z,98807.72
2023-02-03T09:32:41.001Z,98809.56
2023-02-03T09:33:44.987Z,98811.56
2023-02-03T09:34:47.775Z,98802.41
2023-02-03T09:35:56.635Z,98807.38
2023-02-03T09:36:59.563Z,98804.25
2023-02-03T09:38:02.616Z,98804.41
2023-02-03T09:39:05.544Z,98801.44
2023-02-03T09:40:23.999Z,98804.63
2023-02-03T09:41:55.374Z,98791.34
2023-02-03T09:43:27.807Z,98791.09
2023-02-03T09:44:30.769Z,98792.38
2023-02-03T09:45:33.832Z,98784.22
2023-02-03T09:47:00.891Z,98786.97
2023-02-03T09:48:17.173Z,98783.34
2023-02-03T09:49:52.725Z,98776.66
2023-02-03T09:50:55.666Z,98776.09
2023-02-03T09:52:08.814Z,98774.25
2023-02-03T09:53:39.801Z,98765.97
2023-02-03T09:54:57.473Z,98748.94
2023-02-03T09:56:00.532Z,98757.19
2023-02-03T09:57:09.869Z,98749.97
2023-02-03T09:58:21.429Z,98749.50
2023-02-03T09:59:24.607Z,98740.16
2023-02-03T10:00:31.965Z,98742.56
2023-02-03T10:01:52.885Z,98742.38
2023-02-03T10:03:15.546Z,98733.38
2023-02-03T10:04:28.229Z,98732.66
2023-02-03T10:06:06.905Z,98731.94
2023-02-03T10:07:39.223Z,98728.47
2023-02-03T10:09:00.923Z,98729.69
2023-02-03T10:10:21.730Z,98724.19
2023-02-03T10:11:50.032Z,98720.19
2023-02-03T10:12:55.958Z,98710.59
2023-02-03T10:14:20.358Z,98705.19
2023-02-03T10:15:27.506Z,98705.59
2023-02-03T10:16:57.161Z,98704.50
2023-02-03T10:18:10.498Z,98695.75
2023-02-03T10:19:21.046Z,98701.44
2023-02-03T10:20:36.256Z,98694.56
2023-02-03T10:21:45.271Z,98702.50
2023-02-03T10:22:56.473Z,98693.50
2023-02-03T10:24:01.047Z,98688.81
2023-02-03T10:25:12.827Z,98687.88
2023-02-03T10:26:27.102Z,98682.56
2023-02-03T10:27:32.537Z,98684.31
2023-02-03T10:28:47.833Z,98676.78
2023-02-03T10:30:06.860Z,98676.22
2023-02-03T10:31:33.835Z,98663.62
2023-02-03T10:32:38.069Z,98665.59
2023-02-03T10:33:41.016Z,98663.38
2023-02-03T10:34:48.616Z,98660.44
2023-02-03T10:35:54.650Z,98655.50
2023-02-03T10:37:26.770Z,98662.38
2023-02-03T10:39:03.998Z,98662.97
2023-02-03T10:40:11.426Z,98659.00
2023-02-03T10:41:19.588Z,98656.78
2023-02-03T10:42:23.190Z,98654.16
2023-02-03T10:43:47.700Z,98654.31
2023-02-03T10:44:57.508Z,98653.84
2023-02-03T10:46:00.646Z,98638.22
2023-02-03T10:47:16.816Z,98644.03
2023-02-03T10:48:20.114Z,98648.62
2023-02-03T10:49:26.678Z,98639.25
2023-02-03T10:50:32.320Z,98645.78
2023-02-03T10:51:40.610Z,98638.53
2023-02-03T10:52:43.765Z,98635.78
2023-02-03T10:53:47.051Z,98633.78
2023-02-03T10:54:50.013Z,98634.78
2023-02-03T10:56:01.876Z,98629.72
2023-02-03T10:57:14.653Z,98623.38
2023-02-03T10:58:27.190Z,98627.47
2023-02-03T10:59:34.989Z,98613.25
2023-02-03T11:00:38.074Z,98618.38
2023-02-03T11:01:47.375Z,98618.22
2023-02-03T11:03:09.296Z,98603.34
2023-02-03T11:04:28.072Z,98607.63
2023-02-03T11:05:31.022Z,98617.75
2023-02-03T11:06:36.560Z,98604.94
2023-02-03T11:07:39.666Z,98607.56
2023-02-03T11:08:46.301Z,98607.19
2023-02-03T11:09:49.413Z,98599.09
2023-02-03T11:11:04.284Z,98590.94
2023-02-03T11:12:13.073Z,98581.88
2023-02-03T11:13:25.517Z,98591.53
2023-02-03T11:14:37.799Z,98585.94
2023-02-03T11:16:14.047Z,98569.28
2023-02-03T11:17:27.932Z,98564.84
2023-02-03T11:19:11.224Z,98568.50
2023-02-03T11:20:18.211Z,98544.38
2023-02-03T11:21:47.597Z,98552.31
2023-02-03T11:22:54.741Z,98567.31
2023-02-03T11:24:21.833Z,98589.44
2023-02-03T11:25:30.201Z,98603.47
2023-02-03T11:27:07.212Z,98573.75
2023-02-03T11:28:13.555Z,98560.59
2023-02-03T11:29:37.904Z,98553.75
2023-02-03T11:30:40.899Z,98551.16
2023-02-03T11:31:49.382Z,98555.31
2023-02-03T11:32:53.916Z,98551.31
2023-02-03T11:34:07.470Z,98549.88
2023-02-03T11:35:26.365Z,98542.59
2023-02-03T11:36:32.698Z,98543.78
2023-02-03T11:37:40.147Z,98544.13
2023-02-03T11:38:44.998Z,98542.59
2023-02-03T11:39:48.373Z,98542.88
2023-02-03T11:41:00.334Z,98536.13
2023-02-03T11:42:04.081Z,98537.28
2023-02-03T11:43:18.232Z,98526.94
2023-02-03T11:44:23.093Z,98524.00
2023-02-03T11:45:36.123Z,98516.81
2023-02-03T11:46:40.768Z,98515.81
2023-02-03T11:47:54.479Z,98514.69
2023-02-03T11:49:15.309Z,98508.91
2023-02-03T11:50:38.760Z,98510.25
2023-02-03T11:52:02.760Z,98497.13
2023-02-03T11:53:56.671Z,98506.31
2023-02-03T11:55:41.837Z,98493.06
2023-02-03T11:57:02.739Z,98493.13
2023-02-03T11:58:14.936Z,98494.13
2023-02-03T11:59:49.129Z,98488.78
2023-02-03T12:01:33.461Z,98477.69
2023-02-03T12:03:02.979Z,98480.25
2023-02-03T12:04:23.616Z,98473.47
2023-02-03T12:06:01.877Z,98474.59
2023-02-03T12:07:31.569Z,98464.72
2023-02-03T12:08:34.545Z,98471.03
2023-02-03T12:09:43.665Z,98455.78
2023-02-03T12:11:20.033Z,98454.78
2023-02-03T12:12:32.607Z,98454.22
2023-02-03T12:14:06.122Z,98442.91
2023-02-03T12:15:30.357Z,98453.44
2023-02-03T12:16:55.945Z,98446.31
2023-02-03T12:18:21.000Z,98447.50
2023-02-03T12:20:01.588Z,98436.69
2023-02-03T12:21:33.376Z,98431.16
2023-02-03T12:22:52.287Z,98428.56
2023-02-03T12:24:12.417Z,98428.34
2023-02-03T12:25:41.724Z,98424.25
2023-02-03T12:26:52.627Z,98416.06
2023-02-03T12:28:01.252Z,98411.66
2023-02-03T12:29:12.004Z,98413.59
2023-02-03T12:30:20.427Z,98404.06
2023-02-03T12:31:41.737Z,98402.19
2023-02-03T12:32:59.720Z,98400.03
2023-02-03T12:34:18.146Z,98394.47
2023-02-03T12:35:32.787Z,98385.66
2023-02-03T12:36:48.448Z,98380.25
2023-02-03T12:37:59.687Z,98388.91
2023-02-03T12:39:09.441Z,98380.00
2023-02-03T12:40:18.309Z,98374.47
2023-02-03T12:41:45.094Z,98379.28
2023-02-03T12:42:56.116Z,98372.75
2023-02-03T12:44:05.365Z,98371.97
2023-02-03T12:45:31.237Z,98365.25
2023-02-03T12:46:53.871Z,98375.19
2023-02-03T12:48:21.740Z,98371.28
2023-02-03T12:49:32.038Z,98366.84
2023-02-03T12:50:42.319Z,98360.88
2023-02-03T12:52:03.894Z,98358.16
2023-02-03T12:53:19.767Z,98354.56
2023-02-03T12:54:28.911Z,98352.28
2023-02-03T12:55:38.753Z,98347.75
2023-02-03T12:56:44.982Z,98337.00
2023-02-03T12:58:00.778Z,98348.09
2023-02-03T12:59:16.337Z,98337.22
2023-02-03T13:00:27.141Z,98342.06
2023-02-03T13:01:42.559Z,98338.31
2023-02-03T13:03:13.519Z,98325.09
2023-02-03T13:04:34.359Z,98322.81
2023-02-03T13:06:39.125Z,98311.25
2023-02-03T13:07:57.674Z,98314.47
2023-02-03T13:09:18.842Z,98307.44
2023-02-03T13:10:45.446Z,98310.69
2023-02-03T13:11:56.995Z,98296.19
2023-02-03T13:13:02.773Z,98297.31
2023-02-03T13:14:19.669Z,98297.75
2023-02-03T13:15:35.850Z,98308.63
2023-02-03T13:16:43.760Z,98289.13
2023-02-03T13:17:55.899Z,98285.25
2023-02-03T13:19:16.177Z,98287.47
2023-02-03T13:20:25.234Z,98286.16
2023-02-03T13:21:28.859Z,98285.94
2023-02-03T13:22:32.778Z,98285.03
2023-02-03T13:23:36.125Z,98285.81
2023-02-03T13:24:45.657Z,98270.81